Time;durP1;ratioP1;P1;durP2;ratioP2;P2;SDS_P1;SDS_P2;PMS_P1;PMS_P2;Temp;Humidity;BMP_temperature;BMP_pressure;BME280_temperature;BME280_humidity;BME280_pressure;Samples;Min_cycle;Max_cycle;Signal;HPM_P1;HPM_P2
2023/05/31 00:01:43;;;;;;;2.08;1.48;;;19.90;42.20;;;;;;5139689;27;20486;-83
2023/05/31 00:04:09;;;;;;;1.33;1.23;;;19.90;42.40;;;;;;5139508;27;20497;-80
2023/05/31 00:06:35;;;;;;;1.75;1.50;;;19.90;43.00;;;;;;5122129;27;20166;-83
2023/05/31 00:09:01;;;;;;;1.38;1.27;;;20.00;42.40;;;;;;5139654;27;20151;-82
2023/05/31 00:11:26;;;;;;;1.60;1.35;;;19.90;42.30;;;;;;5139373;27;20147;-82
2023/05/31 00:13:53;;;;;;;1.50;1.38;;;19.90;42.30;;;;;;5137973;27;20186;-81
2023/05/31 00:16:18;;;;;;;1.33;1.23;;;19.90;42.20;;;;;;5156301;27;20163;-82
2023/05/31 00:18:44;;;;;;;1.55;1.45;;;19.90;42.20;;;;;;5157842;27;20154;-80
2023/05/31 00:21:10;;;;;;;1.60;1.15;;;19.90;42.30;;;;;;5139028;27;20502;-81
2023/05/31 00:23:35;;;;;;;1.83;1.30;;;19.90;42.40;;;;;;5121809;27;20205;-82
2023/05/31 00:26:01;;;;;;;1.23;1.13;;;19.90;42.20;;;;;;5139247;27;20242;-81
2023/05/31 00:28:26;;;;;;;1.90;1.38;;;19.90;42.40;;;;;;5122529;27;20158;-83
2023/05/31 00:30:52;;;;;;;1.23;1.13;;;19.90;42.40;;;;;;5157119;27;20210;-83
2023/05/31 00:33:18;;;;;;;1.75;1.33;;;19.90;42.40;;;;;;5138847;27;20495;-82
2023/05/31 00:35:43;;;;;;;1.65;1.50;;;19.90;42.40;;;;;;5138755;27;20187;-81
2023/05/31 00:38:09;;;;;;;1.92;1.50;;;19.90;42.40;;;;;;5121525;27;20531;-81
2023/05/31 00:40:35;;;;;;;1.20;1.10;;;19.90;42.50;;;;;;5138659;27;20233;-81
2023/05/31 00:43:00;;;;;;;1.40;1.30;;;19.90;42.50;;;;;;5157078;27;20158;-81
2023/05/31 00:45:28;;;;;;;1.50;1.40;;;19.90;42.40;;;;;;5138415;27;20190;-83
2023/05/31 00:47:54;;;;;;;1.80;1.48;;;19.90;42.40;;;;;;5121649;27;20190;-83
2023/05/31 00:50:20;;;;;;;1.50;1.40;;;19.90;42.40;;;;;;5138414;27;20174;-81
2023/05/31 00:52:46;;;;;;;1.30;1.20;;;19.90;42.50;;;;;;5155601;27;20163;-81
2023/05/31 00:55:12;;;;;;;1.42;1.30;;;19.90;42.40;;;;;;5156020;27;20675;-83
2023/05/31 00:57:37;;;;;;;1.75;1.40;;;19.90;42.40;;;;;;5138586;27;20606;-81
2023/05/31 01:00:05;;;;;;;1.40;1.20;;;19.90;42.70;;;;;;5156668;27;20543;-83
2023/05/31 01:02:32;;;;;;;1.17;1.08;;;19.90;42.50;;;;;;5138572;27;20151;-81
2023/05/31 01:04:58;;;;;;;1.63;1.33;;;19.90;42.60;;;;;;5138364;27;20150;-83
2023/05/31 01:07:24;;;;;;;1.23;1.08;;;19.90;42.50;;;;;;5138448;27;20158;-82
2023/05/31 01:09:51;;;;;;;1.60;1.50;;;19.90;42.60;;;;;;5138559;27;20524;-82
2023/05/31 01:12:26;;;;;;;1.65;1.27;;;19.90;42.60;;;;;;5156769;27;20151;-83
2023/05/31 01:15:21;;;;;;;1.48;1.38;;;19.90;42.50;;;;;;5120600;27;20190;-82
2023/05/31 01:18:09;;;;;;;1.60;1.50;;;19.90;42.60;;;;;;5138169;27;20558;-81
2023/05/31 01:20:35;;;;;;;1.58;1.48;;;19.90;42.80;;;;;;5121487;27;20154;-83
2023/05/31 01:23:30;;;;;;;2.13;1.50;;;19.90;42.80;;;;;;5156373;27;20151;-81
2023/05/31 01:26:31;;;;;;;1.55;1.30;;;19.90;42.80;;;;;;5156049;27;20155;-82
2023/05/31 01:29:00;;;;;;;1.50;1.38;;;19.80;42.90;;;;;;5143120;27;20150;-82
2023/05/31 01:31:26;;;;;;;2.03;1.58;;;19.90;42.80;;;;;;5137933;27;20348;-82
2023/05/31 01:33:51;;;;;;;2.20;1.58;;;19.90;42.90;;;;;;5156069;27;20648;-81
2023/05/31 01:36:17;;;;;;;1.67;1.45;;;19.90;43.00;;;;;;5137596;27;20147;-82
2023/05/31 01:38:43;;;;;;;1.58;1.48;;;19.90;42.90;;;;;;5156022;27;20155;-83
2023/05/31 01:41:09;;;;;;;1.33;1.23;;;19.90;42.80;;;;;;5120344;27;20170;-84
2023/05/31 01:43:36;;;;;;;1.60;1.48;;;19.80;42.80;;;;;;5137536;27;20162;-81
2023/05/31 01:46:02;;;;;;;1.83;1.40;;;19.90;42.90;;;;;;5137437;27;20162;-82
2023/05/31 01:48:28;;;;;;;2.17;1.85;;;19.90;42.80;;;;;;5137704;27;20151;-83
2023/05/31 01:50:53;;;;;;;1.83;1.60;;;19.90;42.90;;;;;;5137121;27;20216;-82
2023/05/31 01:53:19;;;;;;;2.50;1.85;;;19.80;42.70;;;;;;5137845;27;20181;-83
2023/05/31 01:55:45;;;;;;;1.50;1.40;;;19.90;42.90;;;;;;5155606;27;20187;-83
2023/05/31 01:58:11;;;;;;;2.55;1.88;;;19.90;43.00;;;;;;5155651;27;20147;-83
2023/05/31 02:00:37;;;;;;;1.75;1.45;;;19.90;42.50;;;;;;5137015;27;20179;-81
2023/05/31 02:03:04;;;;;;;1.55;1.38;;;19.90;42.50;;;;;;5154158;27;20243;-81
2023/05/31 02:05:30;;;;;;;1.63;1.30;;;19.80;42.40;;;;;;5120048;27;20629;-83
2023/05/31 02:07:55;;;;;;;1.60;1.30;;;19.90;42.50;;;;;;5155487;27;20163;-82
2023/05/31 02:10:21;;;;;;;1.55;1.45;;;19.90;42.50;;;;;;5155433;27;20157;-83
2023/05/31 02:12:50;;;;;;;1.50;1.40;;;19.80;42.50;;;;;;5119697;27;20266;-81
2023/05/31 02:15:16;;;;;;;1.40;1.30;;;19.80;42.40;;;;;;5137231;27;20182;-84
2023/05/31 02:17:43;;;;;;;1.95;1.33;;;19.90;42.50;;;;;;5136997;27;20154;-81
2023/05/31 02:20:12;;;;;;;1.80;1.58;;;19.80;42.50;;;;;;5154241;27;20166;-82
2023/05/31 02:22:41;;;;;;;1.60;1.50;;;19.80;42.50;;;;;;5120434;27;20163;-84
2023/05/31 02:25:10;;;;;;;2.38;1.70;;;19.80;42.50;;;;;;5137280;27;20171;-83
2023/05/31 02:27:36;;;;;;;1.67;1.48;;;19.80;42.50;;;;;;5136860;27;20151;-82
2023/05/31 02:30:04;;;;;;;1.73;1.50;;;19.90;42.50;;;;;;5136340;27;20217;-84
2023/05/31 02:32:35;;;;;;;2.10;1.50;;;19.80;42.50;;;;;;5137241;27;20173;-83
2023/05/31 02:35:04;;;;;;;2.90;1.40;;;19.80;42.50;;;;;;5154960;27;20189;-83
2023/05/31 02:37:30;;;;;;;1.67;1.58;;;19.80;42.50;;;;;;5135999;27;20158;-83
2023/05/31 02:39:56;;;;;;;2.65;1.58;;;19.80;42.50;;;;;;5119786;27;20624;-81
2023/05/31 02:42:22;;;;;;;1.60;1.40;;;19.80;42.40;;;;;;5136498;27;20158;-81
2023/05/31 02:44:47;;;;;;;1.67;1.58;;;19.90;42.50;;;;;;5155300;27;20186;-83
2023/05/31 02:47:14;;;;;;;2.05;1.73;;;19.90;42.50;;;;;;5136781;27;20607;-83
2023/05/31 02:49:39;;;;;;;1.60;1.45;;;19.80;42.40;;;;;;5136554;27;20166;-84
2023/05/31 02:52:05;;;;;;;1.50;1.40;;;19.80;42.40;;;;;;5136564;27;20609;-84
2023/05/31 02:54:31;;;;;;;1.38;1.27;;;19.80;42.50;;;;;;5136475;27;20194;-82
2023/05/31 02:56:57;;;;;;;1.77;1.55;;;19.80;42.50;;;;;;5154055;27;20166;-82
2023/05/31 02:59:23;;;;;;;1.40;1.30;;;19.80;42.50;;;;;;5119598;27;20159;-83
2023/05/31 03:01:49;;;;;;;2.15;1.60;;;19.80;42.50;;;;;;5155099;27;20151;-83
2023/05/31 03:04:15;;;;;;;1.60;1.50;;;19.80;42.50;;;;;;5154415;27;20514;-82
2023/05/31 03:06:42;;;;;;;2.00;1.45;;;19.80;42.50;;;;;;5136492;27;20194;-83
2023/05/31 03:09:08;;;;;;;1.42;1.33;;;19.80;42.50;;;;;;5136864;27;20147;-83
2023/05/31 03:11:34;;;;;;;1.63;1.38;;;19.80;42.50;;;;;;5119661;27;20553;-84
2023/05/31 03:13:59;;;;;;;1.85;1.65;;;19.80;42.60;;;;;;5136221;27;20182;-82
2023/05/31 03:16:25;;;;;;;1.50;1.40;;;19.80;42.60;;;;;;5136197;27;20154;-83
2023/05/31 03:18:51;;;;;;;1.52;1.38;;;19.70;42.50;;;;;;5119050;27;20159;-83
2023/05/31 03:21:17;;;;;;;1.83;1.50;;;19.80;42.60;;;;;;5153741;27;20553;-81
2023/05/31 03:23:42;;;;;;;1.80;1.58;;;19.80;42.60;;;;;;5154727;27;20519;-81
2023/05/31 03:26:08;;;;;;;1.50;1.40;;;19.80;42.60;;;;;;5136222;27;20158;-82
2023/05/31 03:28:34;;;;;;;1.42;1.30;;;19.80;42.60;;;;;;5136118;27;20158;-83
2023/05/31 03:30:59;;;;;;;1.95;1.50;;;19.80;42.60;;;;;;5154550;27;20666;-81
2023/05/31 03:33:25;;;;;;;1.48;1.38;;;19.80;42.60;;;;;;5136104;27;20158;-83
2023/05/31 03:35:51;;;;;;;1.50;1.40;;;19.80;42.60;;;;;;5136030;27;20181;-83
2023/05/31 03:38:16;;;;;;;1.80;1.60;;;19.80;42.60;;;;;;5136064;27;20276;-82
2023/05/31 03:40:42;;;;;;;2.75;1.50;;;19.80;42.60;;;;;;5153500;27;20170;-84
2023/05/31 03:43:08;;;;;;;1.48;1.20;;;19.80;42.50;;;;;;5136031;27;20520;-83
2023/05/31 03:45:33;;;;;;;1.67;1.35;;;19.90;42.40;;;;;;5136169;27;20155;-84
2023/05/31 03:47:59;;;;;;;1.70;1.40;;;19.90;42.40;;;;;;5120202;27;20540;-83
2023/05/31 03:50:25;;;;;;;1.40;1.20;;;19.80;42.30;;;;;;5139813;27;20740;-82
2023/05/31 03:52:51;;;;;;;1.52;1.42;;;19.90;42.40;;;;;;5139660;27;20155;-84
2023/05/31 03:55:16;;;;;;;1.52;1.40;;;19.90;42.20;;;;;;5139454;27;20225;-81
2023/05/31 03:57:42;;;;;;;1.42;1.33;;;19.90;42.20;;;;;;5139832;27;20159;-84
2023/05/31 04:00:11;;;;;;;1.50;1.40;;;19.90;42.20;;;;;;5122332;27;20203;-82
2023/05/31 04:02:37;;;;;;;1.67;1.40;;;20.00;42.20;;;;;;5157931;27;20151;-83
2023/05/31 04:05:04;;;;;;;1.67;1.30;;;20.00;42.20;;;;;;5139514;27;20287;-84
2023/05/31 04:07:31;;;;;;;1.63;1.33;;;20.10;42.20;;;;;;5158114;27;20492;-84
2023/05/31 04:09:56;;;;;;;1.30;1.20;;;20.10;42.10;;;;;;5139834;27;20158;-83
2023/05/31 04:12:22;;;;;;;1.25;1.15;;;20.10;42.10;;;;;;5122042;27;20162;-82
2023/05/31 04:14:47;;;;;;;1.60;1.20;;;20.10;42.10;;;;;;5157725;27;20679;-83
2023/05/31 04:17:13;;;;;;;1.50;1.33;;;20.00;42.00;;;;;;5139005;27;20592;-82
2023/05/31 04:19:39;;;;;;;1.83;1.60;;;20.10;41.90;;;;;;5139047;27;20207;-83
2023/05/31 04:22:04;;;;;;;1.30;1.20;;;20.10;41.90;;;;;;5122166;27;20238;-83
2023/05/31 04:24:30;;;;;;;1.40;1.10;;;20.10;41.90;;;;;;5139073;27;20227;-82
2023/05/31 04:26:56;;;;;;;1.70;1.38;;;20.10;41.90;;;;;;5156104;27;20167;-81
2023/05/31 04:29:22;;;;;;;1.98;1.65;;;20.10;42.00;;;;;;5139009;27;20194;-82
2023/05/31 04:31:47;;;;;;;1.45;1.35;;;20.10;42.60;;;;;;5121666;27;20223;-83
2023/05/31 04:34:18;;;;;;;1.40;1.25;;;20.10;42.00;;;;;;5138858;27;20182;-81
2023/05/31 04:36:48;;;;;;;1.40;1.23;;;20.10;41.90;;;;;;5138617;27;20226;-83
2023/05/31 04:39:15;;;;;;;1.30;1.10;;;20.20;42.00;;;;;;5139212;27;20207;-81
2023/05/31 04:41:41;;;;;;;1.58;1.48;;;20.20;42.00;;;;;;5157206;27;20198;-81
2023/05/31 04:44:07;;;;;;;1.50;1.40;;;20.20;41.90;;;;;;5138759;27;20268;-81
2023/05/31 04:46:33;;;;;;;1.75;1.35;;;20.20;41.90;;;;;;5138530;27;20178;-83
2023/05/31 04:49:00;;;;;;;1.48;1.23;;;20.20;41.80;;;;;;5121404;27;20174;-82
2023/05/31 04:51:26;;;;;;;1.25;1.15;;;20.30;41.80;;;;;;5138760;27;20143;-82
2023/05/31 04:53:52;;;;;;;1.40;1.30;;;20.20;41.80;;;;;;5138388;27;20242;-83
2023/05/31 04:56:18;;;;;;;2.00;1.65;;;20.20;41.80;;;;;;5121492;27;20261;-82
2023/05/31 04:58:44;;;;;;;1.60;1.50;;;20.30;41.80;;;;;;5121046;27;20257;-82
2023/05/31 05:01:12;;;;;;;1.45;1.33;;;20.20;41.80;;;;;;5137883;27;20186;-83
2023/05/31 05:03:37;;;;;;;1.50;1.38;;;20.20;41.80;;;;;;5138706;27;20276;-81
2023/05/31 05:06:18;;;;;;;1.33;1.23;;;20.20;41.80;;;;;;5156647;27;20580;-82
2023/05/31 05:08:44;;;;;;;1.35;1.23;;;20.30;41.80;;;;;;5138547;27;20147;-82
2023/05/31 05:11:10;;;;;;;1.40;1.30;;;20.20;41.80;;;;;;5156466;27;20150;-81
2023/05/31 05:13:36;;;;;;;1.52;1.40;;;20.30;41.90;;;;;;5137933;27;20165;-82
2023/05/31 05:16:02;;;;;;;1.27;1.17;;;20.20;41.70;;;;;;5138177;27;20244;-83
2023/05/31 05:18:28;;;;;;;1.92;1.35;;;20.30;41.70;;;;;;5156376;27;20186;-82
2023/05/31 05:20:54;;;;;;;1.52;1.23;;;20.30;41.80;;;;;;5137985;27;20155;-82
2023/05/31 05:23:21;;;;;;;1.42;1.33;;;20.30;41.60;;;;;;5121207;27;20166;-82
2023/05/31 05:25:46;;;;;;;1.88;1.52;;;20.40;41.70;;;;;;5137619;27;20198;-82
2023/05/31 05:28:12;;;;;;;1.55;1.45;;;20.30;41.60;;;;;;5156248;27;20194;-83
2023/05/31 05:30:38;;;;;;;1.40;1.20;;;20.40;41.60;;;;;;5137673;27;20751;-83
2023/05/31 05:33:04;;;;;;;1.25;1.15;;;20.40;41.60;;;;;;5120460;27;20535;-82
2023/05/31 05:35:30;;;;;;;1.50;1.20;;;20.40;41.50;;;;;;5137712;27;20182;-81
2023/05/31 05:37:57;;;;;;;1.42;1.30;;;20.40;41.40;;;;;;5137471;27;20176;-81
2023/05/31 05:40:23;;;;;;;1.40;1.30;;;20.40;41.40;;;;;;5120329;27;20226;-84
2023/05/31 05:42:49;;;;;;;1.55;1.45;;;20.40;41.50;;;;;;5156576;27;20200;-81
2023/05/31 05:45:15;;;;;;;1.50;1.40;;;20.40;41.60;;;;;;5137960;27;20186;-84
2023/05/31 05:47:44;;;;;;;1.60;1.20;;;20.50;41.50;;;;;;5137475;27;20162;-84
2023/05/31 05:50:11;;;;;;;2.00;1.42;;;20.50;41.50;;;;;;5120731;27;20166;-84
2023/05/31 05:52:37;;;;;;;2.42;1.40;;;20.60;41.50;;;;;;5137172;27;20613;-81
2023/05/31 05:55:03;;;;;;;2.35;1.42;;;20.60;41.40;;;;;;5137806;27;20194;-81
2023/05/31 05:57:29;;;;;;;1.23;1.13;;;20.60;41.20;;;;;;5119703;27;20148;-82
2023/05/31 05:59:56;;;;;;;1.50;1.40;;;20.60;41.30;;;;;;5121086;27;20159;-82
2023/05/31 06:02:22;;;;;;;1.42;1.33;;;20.60;41.30;;;;;;5118645;27;20177;-82
2023/05/31 06:04:49;;;;;;;1.20;1.10;;;20.60;41.30;;;;;;5137289;27;20160;-82
2023/05/31 06:07:15;;;;;;;1.42;1.33;;;20.60;41.30;;;;;;5119427;27;20148;-84
2023/05/31 06:09:41;;;;;;;1.25;1.15;;;20.60;41.40;;;;;;5118392;27;20683;-82
2023/05/31 06:12:09;;;;;;;1.63;1.50;;;20.60;41.40;;;;;;5117066;27;20159;-82
2023/05/31 06:14:34;;;;;;;1.55;1.40;;;20.60;41.60;;;;;;5118941;27;20183;-82
2023/05/31 06:17:02;;;;;;;1.30;1.20;;;20.60;41.60;;;;;;5117793;27;20484;-81
2023/05/31 06:19:28;;;;;;;1.40;1.17;;;20.60;41.80;;;;;;5100898;27;20159;-83
2023/05/31 06:21:57;;;;;;;1.90;1.48;;;20.60;41.90;;;;;;5117629;27;20515;-85
2023/05/31 06:24:23;;;;;;;1.65;1.20;;;20.60;42.40;;;;;;5084530;27;20167;-83
2023/05/31 06:26:48;;;;;;;1.50;1.40;;;20.60;42.20;;;;;;5116121;27;20502;-83
2023/05/31 06:29:14;;;;;;;1.60;1.20;;;20.70;42.00;;;;;;5134340;27;20155;-81
2023/05/31 06:31:40;;;;;;;1.48;1.38;;;20.60;41.90;;;;;;5114136;28;20224;-81
2023/05/31 06:34:06;;;;;;;1.50;1.30;;;20.50;42.30;;;;;;5095492;28;20183;-83
2023/05/31 06:36:37;;;;;;;2.47;1.55;;;20.60;42.30;;;;;;5079287;28;20672;-83
2023/05/31 06:39:05;;;;;;;1.23;1.13;;;20.60;42.30;;;;;;5038500;28;20299;-82
2023/05/31 06:41:32;;;;;;;1.50;1.40;;;20.60;42.10;;;;;;5054709;28;20254;-82
2023/05/31 06:43:58;;;;;;;1.40;1.30;;;20.60;42.00;;;;;;5054593;28;20180;-83
2023/05/31 06:46:24;;;;;;;1.25;1.15;;;20.50;42.10;;;;;;5054675;28;20165;-83
2023/05/31 06:48:52;;;;;;;1.58;1.42;;;20.30;42.20;;;;;;5054449;28;20639;-82
2023/05/31 06:51:19;;;;;;;1.77;1.40;;;20.30;42.60;;;;;;5072708;28;20236;-82
2023/05/31 06:53:45;;;;;;;1.23;1.13;;;20.20;42.50;;;;;;5072692;28;20177;-82
2023/05/31 06:56:10;;;;;;;1.52;1.20;;;20.10;42.70;;;;;;5055404;28;20173;-80
2023/05/31 06:58:36;;;;;;;1.27;1.17;;;20.10;42.80;;;;;;5054503;28;20188;-82
2023/05/31 07:01:02;;;;;;;1.20;1.10;;;20.10;42.90;;;;;;5071167;28;20250;-82
2023/05/31 07:03:28;;;;;;;1.95;1.08;;;20.10;42.80;;;;;;5070854;28;20169;-84
2023/05/31 07:05:54;;;;;;;1.30;1.17;;;20.10;42.90;;;;;;5072072;28;20161;-82
2023/05/31 07:08:20;;;;;;;2.35;1.20;;;20.10;43.10;;;;;;5055647;28;20181;-81
2023/05/31 07:10:45;;;;;;;1.00;1.00;;;20.10;43.20;;;;;;5075967;28;20179;-81
2023/05/31 07:13:40;;;;;;;2.95;1.30;;;20.10;43.20;;;;;;5080418;28;20168;-83
2023/05/31 07:16:06;;;;;;;1.17;1.00;;;20.10;43.30;;;;;;5088195;28;20208;-81
2023/05/31 07:18:33;;;;;;;1.42;0.98;;;20.10;43.40;;;;;;5063786;28;20186;-82
2023/05/31 07:20:59;;;;;;;2.10;1.20;;;20.10;43.40;;;;;;5098851;28;20148;-82
2023/05/31 07:23:35;;;;;;;;;;;;;;;;;;;;;
2023/05/31 07:26:02;;;;;;;1.33;1.23;;;20.00;43.40;;;;;;5077731;28;20183;-82
2023/05/31 07:28:28;;;;;;;2.17;0.80;;;20.00;43.40;;;;;;5084359;28;20187;-82
2023/05/31 07:30:54;;;;;;;1.30;1.20;;;19.90;43.50;;;;;;5120507;28;20219;-81
2023/05/31 07:33:20;;;;;;;0.82;0.80;;;20.00;43.40;;;;;;5083269;28;20186;-83
2023/05/31 07:35:46;;;;;;;1.25;1.08;;;20.00;43.40;;;;;;5099391;28;20183;-83
2023/05/31 07:38:12;;;;;;;1.95;1.00;;;20.00;43.40;;;;;;5099257;28;20564;-83
2023/05/31 07:40:38;;;;;;;1.25;1.08;;;20.10;43.40;;;;;;5117738;28;20201;-84
2023/05/31 07:43:07;;;;;;;1.30;0.93;;;20.10;43.30;;;;;;5099868;28;20160;-81
2023/05/31 07:45:33;;;;;;;1.05;0.95;;;20.20;43.00;;;;;;5083253;28;20664;-81
2023/05/31 07:47:59;;;;;;;1.15;1.00;;;20.10;43.00;;;;;;5100299;28;20172;-81
2023/05/31 07:50:25;;;;;;;0.70;0.70;;;20.10;43.20;;;;;;5099904;28;20160;-83
2023/05/31 07:52:51;;;;;;;1.52;1.30;;;20.20;43.10;;;;;;5084053;28;20190;-84
2023/05/31 07:55:17;;;;;;;1.17;1.08;;;20.20;43.10;;;;;;5118721;28;20176;-83
2023/05/31 07:57:43;;;;;;;1.00;0.90;;;20.20;43.20;;;;;;5100108;28;20163;-81
2023/05/31 08:00:11;;;;;;;0.88;0.80;;;20.20;43.20;;;;;;5101586;28;20604;-81
2023/05/31 08:02:37;;;;;;;1.45;1.00;;;20.30;43.10;;;;;;5101281;28;20574;-81
2023/05/31 08:05:04;;;;;;;1.08;0.80;;;20.30;43.00;;;;;;5099762;28;20160;-83
2023/05/31 08:07:30;;;;;;;0.95;0.90;;;20.30;43.10;;;;;;5083303;28;20598;-80
2023/05/31 08:09:56;;;;;;;1.17;0.93;;;20.30;43.10;;;;;;5116774;28;20199;-83
2023/05/31 08:12:22;;;;;;;1.10;0.98;;;20.30;43.00;;;;;;5080482;28;20635;-80
2023/05/31 08:14:47;;;;;;;1.08;0.90;;;20.30;42.90;;;;;;5115945;28;20184;-84
2023/05/31 08:17:13;;;;;;;1.10;0.90;;;20.30;42.90;;;;;;5115595;28;20184;-83
2023/05/31 08:19:40;;;;;;;1.15;0.90;;;20.30;43.00;;;;;;5116283;28;20153;-80
2023/05/31 08:22:05;;;;;;;1.00;0.90;;;20.40;42.80;;;;;;5097324;28;20251;-82
2023/05/31 08:24:31;;;;;;;1.13;0.95;;;20.40;42.90;;;;;;5064543;28;20674;-84
2023/05/31 08:26:58;;;;;;;2.15;0.90;;;20.40;42.80;;;;;;5082532;28;20179;-83
2023/05/31 08:29:23;;;;;;;1.75;0.80;;;20.50;42.90;;;;;;5066145;28;20207;-85
2023/05/31 08:31:59;;;;;;;2.38;0.90;;;20.40;42.80;;;;;;5082422;28;20218;-84
2023/05/31 08:34:24;;;;;;;1.10;0.80;;;20.50;42.80;;;;;;5082919;28;20615;-81
2023/05/31 08:36:50;;;;;;;1.38;0.98;;;20.40;42.80;;;;;;5117643;28;20156;-80
2023/05/31 08:39:25;;;;;;;1.08;0.80;;;20.50;42.80;;;;;;5081751;28;20192;-80
2023/05/31 08:42:12;;;;;;;2.10;0.88;;;20.50;42.80;;;;;;5101055;28;20191;-82
2023/05/31 08:44:38;;;;;;;1.23;0.80;;;20.50;43.10;;;;;;5083204;28;20148;-82
2023/05/31 08:47:10;;;;;;;0.98;0.73;;;20.50;43.00;;;;;;5082536;28;20620;-81
2023/05/31 08:49:36;;;;;;;1.23;0.98;;;20.60;43.00;;;;;;5083310;28;20148;-79
2023/05/31 08:52:01;;;;;;;0.85;0.70;;;20.50;43.00;;;;;;5081925;28;20552;-80
2023/05/31 08:54:27;;;;;;;1.15;0.90;;;20.50;43.20;;;;;;5082614;28;20215;-80
2023/05/31 08:56:53;;;;;;;1.00;0.90;;;20.50;43.10;;;;;;5064617;28;20194;-80
2023/05/31 08:59:24;;;;;;;1.10;0.77;;;20.50;43.10;;;;;;5080863;28;20216;-82
2023/05/31 09:01:55;;;;;;;1.42;0.70;;;20.60;43.40;;;;;;5061634;28;20704;-80
2023/05/31 09:04:23;;;;;;;0.80;0.80;;;20.60;43.10;;;;;;5078267;28;20217;-83
2023/05/31 09:06:52;;;;;;;1.77;0.70;;;20.60;43.00;;;;;;5076547;28;20181;-81
2023/05/31 09:09:18;;;;;;;1.20;0.82;;;20.60;42.90;;;;;;5076436;28;20550;-82
2023/05/31 09:11:45;;;;;;;0.80;0.80;;;20.70;43.00;;;;;;5093512;28;20188;-81
2023/05/31 09:14:10;;;;;;;2.17;0.90;;;20.60;43.10;;;;;;5058818;28;20192;-83
2023/05/31 09:16:38;;;;;;;1.20;0.90;;;20.70;43.10;;;;;;5076139;28;20256;-83
2023/05/31 09:19:05;;;;;;;1.25;0.77;;;20.70;43.00;;;;;;5076331;28;20153;-82
2023/05/31 09:21:44;;;;;;;2.40;0.75;;;20.80;43.10;;;;;;5075455;28;20264;-83
2023/05/31 09:24:10;;;;;;;0.88;0.70;;;20.80;42.90;;;;;;5016043;28;20610;-82
2023/05/31 09:26:44;;;;;;;1.52;0.70;;;20.80;43.00;;;;;;5017712;28;20687;-82
2023/05/31 09:29:10;;;;;;;0.77;0.70;;;20.90;43.00;;;;;;5017049;28;20178;-80
2023/05/31 09:31:36;;;;;;;2.38;0.93;;;20.90;42.90;;;;;;5034457;28;20218;-82
2023/05/31 09:34:01;;;;;;;1.60;0.80;;;20.90;42.80;;;;;;5055779;28;20235;-83
2023/05/31 09:36:28;;;;;;;3.47;0.70;;;20.90;42.80;;;;;;5038942;28;20211;-81
2023/05/31 09:39:04;;;;;;;1.65;0.90;;;20.80;42.90;;;;;;5055423;28;20583;-82
2023/05/31 09:41:30;;;;;;;2.25;0.80;;;20.90;43.00;;;;;;5039742;28;20172;-81
2023/05/31 09:43:56;;;;;;;1.80;0.73;;;20.80;43.00;;;;;;5055904;28;20573;-82
2023/05/31 09:46:23;;;;;;;4.53;0.90;;;20.80;43.20;;;;;;5040454;28;20160;-81
2023/05/31 09:48:59;;;;;;;3.65;1.13;;;20.90;43.30;;;;;;5058843;28;20188;-80
2023/05/31 09:51:25;;;;;;;5.70;1.23;;;20.90;43.00;;;;;;5063061;28;20154;-80
2023/05/31 09:53:55;;;;;;;3.10;0.90;;;20.80;43.10;;;;;;5042733;28;20161;-79
2023/05/31 09:56:21;;;;;;;3.60;0.90;;;20.80;43.10;;;;;;5099420;28;20145;-81
2023/05/31 09:58:47;;;;;;;3.78;0.93;;;20.90;43.10;;;;;;5080204;28;20189;-84
2023/05/31 10:01:14;;;;;;;8.05;0.88;;;20.90;43.20;;;;;;5096617;28;20159;-81
2023/05/31 10:03:40;;;;;;;3.10;1.05;;;21.00;43.20;;;;;;5079317;28;20169;-83
2023/05/31 10:06:06;;;;;;;3.03;0.70;;;20.90;42.80;;;;;;5113334;28;20168;-80
2023/05/31 10:08:33;;;;;;;1.83;0.90;;;20.90;43.20;;;;;;5096362;28;20164;-82
2023/05/31 10:11:05;;;;;;;1.70;1.02;;;20.80;43.80;;;;;;5114997;28;20148;-79
2023/05/31 10:13:31;;;;;;;2.78;1.05;;;20.80;43.30;;;;;;5114345;28;20205;-79
2023/05/31 10:15:57;;;;;;;2.83;1.00;;;20.80;43.30;;;;;;5114791;28;20191;-83
2023/05/31 10:18:31;;;;;;;2.90;0.90;;;20.80;43.50;;;;;;5095764;28;20164;-78
2023/05/31 10:21:00;;;;;;;1.48;0.90;;;20.70;43.40;;;;;;5063007;28;20160;-83
2023/05/31 10:23:27;;;;;;;1.80;0.90;;;20.70;43.50;;;;;;5079813;28;20144;-80
2023/05/31 10:26:13;;;;;;;2.05;0.90;;;20.60;43.60;;;;;;5096129;28;20239;-84
2023/05/31 10:28:45;;;;;;;0.70;0.63;;;20.60;43.60;;;;;;5097982;28;20183;-83
2023/05/31 10:31:11;;;;;;;1.95;1.10;;;20.70;43.50;;;;;;5127728;27;20215;-83
2023/05/31 10:33:37;;;;;;;2.63;0.88;;;20.70;43.50;;;;;;5100192;27;20188;-79
2023/05/31 10:36:03;;;;;;;1.65;0.93;;;20.60;43.60;;;;;;5116940;27;20187;-80
2023/05/31 10:38:32;;;;;;;4.75;0.75;;;20.60;43.60;;;;;;5098988;28;20155;-84
2023/05/31 10:41:06;;;;;;;3.70;0.90;;;20.70;43.60;;;;;;5099438;27;20152;-80
2023/05/31 10:44:07;;;;;;;3.45;0.90;;;20.70;43.70;;;;;;5116142;28;20151;-82
2023/05/31 10:46:33;;;;;;;0.70;0.70;;;20.70;43.50;;;;;;5116235;28;20155;-80
2023/05/31 10:48:59;;;;;;;1.45;1.15;;;20.70;43.50;;;;;;5135224;28;20155;-82
2023/05/31 10:51:39;;;;;;;1.75;0.85;;;20.70;43.50;;;;;;5115465;28;20602;-80
2023/05/31 10:54:05;;;;;;;0.88;0.80;;;20.70;43.70;;;;;;5134531;28;20659;-80
2023/05/31 10:56:31;;;;;;;2.40;0.95;;;20.70;43.50;;;;;;5116137;28;20196;-81
2023/05/31 10:58:56;;;;;;;1.35;0.88;;;20.80;43.60;;;;;;5119003;27;20555;-83
2023/05/31 11:01:22;;;;;;;3.70;0.80;;;20.70;43.60;;;;;;5120857;27;20159;-83
2023/05/31 11:03:49;;;;;;;2.22;1.00;;;20.70;43.60;;;;;;5104773;27;20504;-81
2023/05/31 11:06:17;;;;;;;2.55;0.90;;;20.70;43.70;;;;;;5103729;27;20164;-80
2023/05/31 11:09:00;;;;;;;1.67;0.90;;;20.90;43.70;;;;;;5120446;27;20152;-83
2023/05/31 11:11:28;;;;;;;0.90;0.60;;;20.80;43.40;;;;;;5120639;27;20224;-80
2023/05/31 11:14:00;;;;;;;1.23;0.90;;;20.90;44.20;;;;;;5120019;27;20220;-80
2023/05/31 11:16:27;;;;;;;1.38;0.80;;;20.80;43.30;;;;;;5120695;27;20151;-82
2023/05/31 11:19:12;;;;;;;2.75;1.10;;;20.90;43.50;;;;;;5120142;27;20151;-83
2023/05/31 11:21:49;;;;;;;1.42;0.60;;;20.80;43.40;;;;;;5119790;27;20505;-84
2023/05/31 11:24:29;;;;;;;1.70;0.80;;;20.80;43.50;;;;;;5138181;27;20635;-81
2023/05/31 11:26:56;;;;;;;1.70;0.77;;;20.80;43.50;;;;;;5138122;27;20656;-81
2023/05/31 11:29:22;;;;;;;0.75;0.50;;;20.80;43.60;;;;;;5103168;27;20163;-83
2023/05/31 11:31:58;;;;;;;2.78;0.82;;;20.80;43.50;;;;;;5119560;27;20578;-81
2023/05/31 11:34:27;;;;;;;1.65;0.80;;;20.80;43.40;;;;;;5119614;27;20206;-82
2023/05/31 11:36:53;;;;;;;1.83;0.50;;;20.90;43.40;;;;;;5120399;27;20252;-83
2023/05/31 11:39:19;;;;;;;1.70;0.70;;;20.80;43.40;;;;;;5119781;27;20206;-83
2023/05/31 11:41:45;;;;;;;2.65;0.80;;;20.90;43.30;;;;;;5120166;27;20163;-80
2023/05/31 11:44:11;;;;;;;1.95;0.80;;;20.90;43.20;;;;;;5102589;27;20521;-83
2023/05/31 11:46:39;;;;;;;0.75;0.70;;;21.00;43.20;;;;;;5119778;27;20151;-80
2023/05/31 11:49:04;;;;;;;0.85;0.80;;;20.90;43.20;;;;;;5119410;27;20256;-81
2023/05/31 11:51:30;;;;;;;1.63;0.60;;;20.90;43.30;;;;;;5098989;28;20235;-83
2023/05/31 11:53:56;;;;;;;0.98;0.80;;;20.90;43.40;;;;;;5082557;28;20175;-81
2023/05/31 11:56:30;;;;;;;1.38;0.60;;;20.90;43.30;;;;;;5083002;28;20232;-81
2023/05/31 11:58:58;;;;;;;1.50;0.75;;;21.00;43.20;;;;;;5082579;28;20218;-81
2023/05/31 12:01:24;;;;;;;1.55;0.90;;;20.90;43.30;;;;;;5095489;27;20163;-82
2023/05/31 12:03:58;;;;;;;1.63;0.60;;;20.90;43.30;;;;;;5120272;27;20151;-82
2023/05/31 12:06:24;;;;;;;2.83;0.82;;;20.90;43.40;;;;;;5103062;27;20190;-84
2023/05/31 12:08:52;;;;;;;1.00;0.80;;;20.90;43.40;;;;;;5120220;28;20179;-83
2023/05/31 12:11:18;;;;;;;0.85;0.70;;;20.90;43.30;;;;;;5119073;27;20565;-82
2023/05/31 12:13:43;;;;;;;1.73;0.50;;;20.90;43.40;;;;;;5119702;27;20198;-81
2023/05/31 12:16:09;;;;;;;1.98;0.70;;;21.00;43.50;;;;;;5121453;27;20194;-82
2023/05/31 12:18:38;;;;;;;1.83;0.98;;;21.00;43.90;;;;;;5121621;27;20231;-81
2023/05/31 12:21:15;;;;;;;0.68;0.68;;;20.90;43.30;;;;;;5121977;27;20164;-82
2023/05/31 12:23:57;;;;;;;1.15;0.90;;;20.90;43.30;;;;;;5121670;27;20151;-80
2023/05/31 12:26:23;;;;;;;1.38;0.63;;;21.00;43.40;;;;;;5122055;27;20235;-82
2023/05/31 12:28:53;;;;;;;1.05;0.80;;;21.00;43.10;;;;;;5083184;28;20183;-79
2023/05/31 12:31:21;;;;;;;0.75;0.68;;;21.00;43.10;;;;;;5093271;28;20220;-79
2023/05/31 12:34:07;;;;;;;1.88;1.00;;;21.00;43.20;;;;;;5095804;28;20177;-83
2023/05/31 12:36:38;;;;;;;1.55;0.80;;;21.00;43.10;;;;;;5089785;28;20555;-81
2023/05/31 12:39:09;;;;;;;3.53;0.98;;;21.00;43.20;;;;;;5095231;28;20212;-81
2023/05/31 12:41:35;;;;;;;2.72;0.70;;;21.00;43.20;;;;;;5060916;28;20634;-81
2023/05/31 12:44:07;;;;;;;1.27;0.82;;;21.00;43.20;;;;;;5062533;28;20181;-84
2023/05/31 12:46:45;;;;;;;3.42;1.00;;;21.00;43.20;;;;;;5047422;28;20275;-82
2023/05/31 12:49:33;;;;;;;2.65;0.85;;;21.00;43.20;;;;;;5042119;28;20217;-82
2023/05/31 12:52:03;;;;;;;1.67;0.70;;;21.00;43.20;;;;;;5020019;28;20618;-80